Time;durP1;ratioP1;P1;durP2;ratioP2;P2;SDS_P1;SDS_P2;PMS_P1;PMS_P2;Temp;Humidity;BMP_temperature;BMP_pressure;BME280_temperature;BME280_humidity;BME280_pressure;Samples;Min_cycle;Max_cycle;Signal;HPM_P1;HPM_P2
2023/12/30 00:01:05;;;;;;;3.97;0.80;;;7.60;99.90;;;6.25;94.04;99810.81;4872841;28;20540;-82
2023/12/30 00:03:31;;;;;;;8.93;1.67;;;7.60;99.90;;;6.20;93.48;99810.16;4870561;28;20217;-83
2023/12/30 00:05:57;;;;;;;7.90;1.25;;;7.60;99.90;;;6.15;93.50;99814.72;4861548;28;21350;-82
2023/12/30 00:08:30;;;;;;;2.90;0.93;;;7.50;99.90;;;6.13;93.35;99809.59;4887758;28;20130;-83
2023/12/30 00:10:56;;;;;;;6.95;1.10;;;7.50;99.90;;;6.13;93.56;99817.41;4861085;28;20110;-82
2023/12/30 00:13:22;;;;;;;3.72;1.27;;;7.50;99.90;;;6.09;93.11;99818.47;4944647;28;20053;-83
2023/12/30 00:15:50;;;;;;;3.70;0.95;;;7.50;99.90;;;6.07;93.27;99822.03;4912730;28;20035;-83
2023/12/30 00:18:23;;;;;;;3.63;0.80;;;7.50;99.90;;;6.10;93.16;99833.22;4883434;28;20038;-81
2023/12/30 00:20:51;;;;;;;6.13;0.65;;;7.50;99.90;;;6.09;92.96;99836.75;4898602;28;20114;-83
2023/12/30 00:23:18;;;;;;;5.32;0.82;;;7.50;99.90;;;6.08;93.10;99834.19;4870461;28;20043;-83
2023/12/30 00:25:51;;;;;;;3.03;0.70;;;7.40;99.90;;;6.06;93.07;99833.41;4847021;28;20518;-81
2023/12/30 00:28:19;;;;;;;2.45;0.68;;;7.50;99.90;;;6.04;92.99;99836.09;4838659;29;20739;-82
2023/12/30 00:30:45;;;;;;;5.45;0.77;;;7.40;99.90;;;6.02;93.26;99837.06;4834240;28;20489;-82
2023/12/30 00:33:34;;;;;;;6.88;1.00;;;7.40;99.90;;;6.01;93.86;99830.16;4897242;28;20055;-82
2023/12/30 00:36:03;;;;;;;3.08;0.88;;;7.40;99.90;;;5.97;94.10;99834.66;4926045;23;20465;-83
2023/12/30 00:38:29;;;;;;;2.70;0.60;;;7.40;99.90;;;5.95;93.98;99828.63;4923615;28;20054;-82
2023/12/30 00:41:05;;;;;;;5.68;0.82;;;7.40;99.90;;;5.95;94.24;99826.88;4885131;28;20091;-82
2023/12/30 00:43:32;;;;;;;3.55;0.65;;;7.40;99.90;;;5.93;94.53;99833.88;4822642;28;20050;-82
2023/12/30 00:45:58;;;;;;;6.80;0.90;;;7.30;99.90;;;5.90;94.71;99835.81;4863739;29;20039;-83
2023/12/30 00:48:33;;;;;;;4.20;0.60;;;7.30;99.90;;;5.92;94.42;99832.19;4887750;29;20101;-82
2023/12/30 00:51:02;;;;;;;2.67;0.60;;;7.30;99.90;;;5.94;95.02;99834.75;4871576;28;20119;-83
2023/12/30 00:53:39;;;;;;;4.47;0.65;;;7.30;99.90;;;5.92;94.67;99820.91;4872886;28;20053;-82
2023/12/30 00:56:05;;;;;;;7.18;0.60;;;7.30;99.90;;;5.94;94.83;99814.72;4874597;28;20031;-81
2023/12/30 00:58:35;;;;;;;7.88;0.88;;;7.30;99.90;;;5.93;94.28;99807.75;4836943;29;20053;-83
2023/12/30 01:01:01;;;;;;;7.70;0.95;;;7.30;99.90;;;5.89;94.33;99808.81;4858950;28;20067;-82
2023/12/30 01:03:27;;;;;;;9.35;3.38;;;7.30;99.90;;;5.89;94.59;99815.78;4860168;28;20039;-81
2023/12/30 01:05:53;;;;;;;3.53;0.50;;;7.30;99.90;;;5.88;94.44;99808.88;4910262;28;20294;-82
2023/12/30 01:08:21;;;;;;;2.75;0.63;;;7.30;99.90;;;5.84;94.29;99815.16;4851939;28;20074;-83
2023/12/30 01:10:54;;;;;;;5.72;0.80;;;7.30;99.90;;;5.86;94.47;99822.00;4901795;28;20050;-82
2023/12/30 01:13:20;;;;;;;4.53;0.57;;;7.30;99.90;;;5.87;94.60;99823.69;4901454;28;20039;-82
2023/12/30 01:15:46;;;;;;;6.40;0.82;;;7.20;99.90;;;5.87;94.71;99821.06;4899609;29;20039;-82
2023/12/30 01:18:12;;;;;;;4.75;0.77;;;7.20;99.90;;;5.83;94.24;99810.81;4875001;28;20514;-81
2023/12/30 01:20:45;;;;;;;6.32;1.00;;;7.20;99.90;;;5.82;94.69;99816.97;4846700;29;20968;-83
2023/12/30 01:23:14;;;;;;;2.55;0.50;;;7.20;99.90;;;5.78;94.35;99818.84;4898120;28;20087;-81
2023/12/30 01:25:42;;;;;;;6.22;0.88;;;7.10;99.90;;;5.75;94.43;99825.06;4868085;28;20035;-81
2023/12/30 01:28:15;;;;;;;3.30;0.68;;;7.10;99.90;;;5.67;94.94;99816.69;4873545;29;20058;-82
2023/12/30 01:30:43;;;;;;;7.55;0.88;;;7.10;99.90;;;5.65;95.28;99810.66;4872741;28;20067;-82
2023/12/30 01:33:10;;;;;;;5.93;0.70;;;7.10;99.90;;;5.63;95.19;99811.66;4874113;29;20062;-83
2023/12/30 01:35:41;;;;;;;3.25;0.73;;;7.00;99.90;;;5.62;95.39;99830.84;4833896;29;20043;-81
2023/12/30 01:38:07;;;;;;;5.88;1.55;;;7.00;99.90;;;5.62;95.75;99828.25;4919754;28;20042;-83
2023/12/30 01:40:33;;;;;;;8.02;0.80;;;7.10;99.90;;;5.66;95.56;99830.66;4878458;28;20048;-81
2023/12/30 01:43:04;;;;;;;10.27;1.35;;;7.10;99.90;;;5.70;95.19;99832.25;4891200;28;20481;-82
2023/12/30 01:45:33;;;;;;;5.28;0.90;;;7.10;99.90;;;5.73;95.26;99826.88;4884764;28;20039;-83
2023/12/30 01:47:59;;;;;;;10.45;0.90;;;7.10;99.90;;;5.72;95.05;99834.78;4857272;28;20074;-83
2023/12/30 01:50:28;;;;;;;4.60;0.90;;;7.10;99.90;;;5.68;94.75;99827.97;4869961;28;20118;-81
2023/12/30 01:52:54;;;;;;;6.55;1.00;;;7.10;99.90;;;5.75;94.86;99840.72;4847034;28;20047;-83
2023/12/30 01:55:33;;;;;;;5.88;0.90;;;7.10;99.90;;;5.71;94.40;99833.94;4851128;29;20051;-83
2023/12/30 01:58:05;;;;;;;8.57;0.80;;;7.10;99.90;;;5.68;94.41;99843.63;4885093;28;20035;-83
2023/12/30 02:00:34;;;;;;;5.22;0.98;;;7.10;99.90;;;5.64;94.32;99849.94;4881445;28;20522;-83
2023/12/30 02:03:01;;;;;;;6.75;1.00;;;7.00;99.90;;;5.57;94.54;99844.06;4856611;28;20110;-83
2023/12/30 02:05:47;;;;;;;;;;;;;;;;;;;;;
2023/12/30 02:08:15;;;;;;;6.18;1.33;;;7.00;99.90;;;5.54;95.42;99859.88;4843979;28;21443;-82
2023/12/30 02:10:41;;;;;;;11.95;1.10;;;6.90;99.90;;;5.52;95.09;99853.88;4845900;29;20053;-83
2023/12/30 02:13:08;;;;;;;2.67;0.93;;;6.90;99.90;;;5.48;95.24;99858.34;4837630;29;20073;-82
2023/12/30 02:15:35;;;;;;;8.50;1.00;;;6.90;99.90;;;5.52;95.22;99853.88;4875387;28;20043;-81
2023/12/30 02:18:10;;;;;;;9.52;1.25;;;6.90;99.90;;;5.52;95.45;99853.88;4890698;28;20529;-82
2023/12/30 02:20:36;;;;;;;7.05;0.82;;;7.00;99.90;;;5.50;95.58;99856.53;4858642;28;20047;-83
2023/12/30 02:23:02;;;;;;;8.65;1.13;;;6.90;99.90;;;5.48;95.22;99847.91;4863036;28;20122;-83
2023/12/30 02:25:39;;;;;;;5.05;1.17;;;6.90;99.90;;;5.46;95.64;99860.16;4878302;29;20060;-83
2023/12/30 02:28:05;;;;;;;7.80;1.35;;;6.90;99.90;;;5.51;95.83;99852.19;4841444;29;20048;-82
2023/12/30 02:30:40;;;;;;;9.90;1.10;;;6.90;99.90;;;5.53;95.74;99848.59;4861537;29;20078;-83
2023/12/30 02:33:24;;;;;;;9.13;0.77;;;6.90;99.90;;;5.55;95.52;99843.31;4849789;29;20035;-82
2023/12/30 02:36:00;;;;;;;;;;;;;;;;;;;;;
2023/12/30 02:38:26;;;;;;;4.10;0.77;;;7.00;99.90;;;5.53;94.98;99848.59;4877616;28;20555;-83
2023/12/30 02:40:52;;;;;;;7.82;1.10;;;7.00;99.90;;;5.58;95.43;99851.00;4879358;28;20623;-82
2023/12/30 02:43:25;;;;;;;7.43;1.00;;;6.90;99.90;;;5.61;95.15;99857.88;4854342;29;20087;-83
2023/12/30 02:45:51;;;;;;;6.80;1.08;;;7.00;99.90;;;5.54;94.92;99858.09;4901155;28;20157;-83
2023/12/30 02:48:20;;;;;;;13.50;1.00;;;6.90;99.90;;;5.52;95.01;99859.94;4864419;28;20055;-82
2023/12/30 02:50:45;;;;;;;9.65;0.90;;;6.90;99.90;;;5.55;95.30;99864.19;4849363;29;20087;-82
2023/12/30 02:53:21;;;;;;;9.05;0.93;;;6.90;99.90;;;5.55;94.92;99859.81;4943287;28;20039;-82
2023/12/30 02:55:59;;;;;;;;;;;;;;;;;;;;;
2023/12/30 02:58:25;;;;;;;10.88;1.50;;;6.90;99.90;;;5.50;95.12;99866.97;4865523;28;20051;-82
2023/12/30 03:00:51;;;;;;;8.05;0.80;;;6.90;99.90;;;5.46;95.37;99873.22;4899192;28;20050;-83
2023/12/30 03:03:17;;;;;;;8.77;1.02;;;6.90;99.90;;;5.44;95.25;99874.19;4849653;28;20052;-82
2023/12/30 03:05:48;;;;;;;11.18;1.00;;;6.90;99.90;;;5.46;95.36;99868.00;4884380;28;20485;-83
2023/12/30 03:08:14;;;;;;;6.93;0.88;;;6.90;99.90;;;5.47;95.41;99861.88;4853932;28;20119;-82
2023/12/30 03:10:40;;;;;;;12.85;1.20;;;6.90;99.90;;;5.49;94.82;99861.84;4856142;28;20613;-82
2023/12/30 03:13:22;;;;;;;8.98;1.05;;;6.90;99.90;;;5.49;94.99;99875.72;4838567;28;20044;-82
2023/12/30 03:15:48;;;;;;;8.07;1.20;;;6.90;99.90;;;5.45;95.18;99868.94;4869741;29;20039;-83
2023/12/30 03:18:14;;;;;;;4.72;0.85;;;6.90;99.90;;;5.48;95.05;99873.16;4832221;29;20043;-82
2023/12/30 03:20:45;;;;;;;9.45;1.30;;;6.90;99.90;;;5.46;95.34;99869.78;4879580;29;20098;-82
2023/12/30 03:23:11;;;;;;;8.85;1.55;;;6.90;99.90;;;5.42;95.57;99871.66;4864679;28;20045;-82
2023/12/30 03:25:37;;;;;;;8.35;1.40;;;6.80;99.90;;;5.39;95.90;99873.53;4896898;28;21259;-82
2023/12/30 03:28:03;;;;;;;7.88;0.93;;;6.80;99.90;;;5.43;95.74;99875.13;4856268;28;20040;-82
2023/12/30 03:30:54;;;;;;;8.38;1.15;;;6.80;99.90;;;5.45;95.79;99876.75;4880831;28;20052;-83
2023/12/30 03:33:20;;;;;;;8.50;0.82;;;6.80;99.90;;;5.44;96.01;99882.03;4850004;28;20054;-82
2023/12/30 03:35:46;;;;;;;10.75;1.35;;;6.80;99.90;;;5.43;96.13;99885.56;4869308;28;20165;-82
2023/12/30 03:38:12;;;;;;;5.20;0.93;;;6.80;99.90;;;5.39;96.16;99883.97;4860820;28;20046;-82
2023/12/30 03:40:45;;;;;;;8.32;1.00;;;6.80;99.90;;;5.34;96.40;99871.94;4855313;28;20047;-82
2023/12/30 03:43:14;;;;;;;7.47;0.90;;;6.80;99.90;;;5.32;96.94;99867.69;4850275;29;20052;-82
2023/12/30 03:45:40;;;;;;;8.85;1.13;;;6.80;99.90;;;5.33;96.85;99874.59;4853621;29;20070;-82
2023/12/30 03:48:14;;;;;;;10.07;1.48;;;6.70;99.90;;;5.28;97.14;99871.34;4823538;29;20048;-81
2023/12/30 03:50:42;;;;;;;6.68;1.15;;;6.70;99.90;;;5.27;97.38;99872.22;4813364;29;20988;-82
2023/12/30 03:53:19;;;;;;;8.60;1.17;;;6.70;99.90;;;5.29;97.55;99870.41;4835955;29;20044;-83
2023/12/30 03:55:45;;;;;;;10.77;1.02;;;6.70;99.90;;;5.26;98.29;99868.78;4794002;29;20507;-81
2023/12/30 03:58:14;;;;;;;7.57;1.00;;;6.70;99.90;;;5.29;98.71;99873.03;4878100;29;20040;-82
2023/12/30 04:00:53;;;;;;;14.02;1.15;;;6.70;99.90;;;5.33;99.21;99872.88;4865270;28;20055;-82
2023/12/30 04:03:44;;;;;;;7.72;1.10;;;6.80;99.90;;;5.37;99.55;99870.13;4861610;29;20039;-82
2023/12/30 04:06:41;;;;;;;7.30;1.05;;;6.80;99.90;;;5.36;99.68;99869.28;4896892;28;20772;-82
2023/12/30 04:09:07;;;;;;;13.35;1.48;;;6.70;99.90;;;5.35;99.83;99865.81;4894241;28;20041;-82
2023/12/30 04:11:33;;;;;;;10.43;1.38;;;6.80;99.90;;;5.40;100.00;99862.16;4888593;28;20035;-83
2023/12/30 04:14:04;;;;;;;6.88;1.02;;;6.80;99.90;;;5.41;100.00;99861.28;4886915;28;20039;-83
2023/12/30 04:16:32;;;;;;;7.68;0.93;;;6.80;99.90;;;5.38;100.00;99870.09;4870686;29;20090;-83
2023/12/30 04:19:00;;;;;;;10.90;1.10;;;6.80;99.90;;;5.35;100.00;99865.81;4888095;28;20043;-83
2023/12/30 04:21:26;;;;;;;6.55;1.08;;;6.80;99.90;;;5.35;100.00;99864.97;4937997;28;20036;-82
2023/12/30 04:24:03;;;;;;;5.50;0.95;;;6.80;99.90;;;5.34;100.00;99868.50;4866028;28;20490;-82
2023/12/30 04:26:38;;;;;;;8.00;1.23;;;6.80;99.90;;;5.38;100.00;99875.31;4863943;28;20130;-82
2023/12/30 04:29:04;;;;;;;10.18;1.27;;;6.80;99.90;;;5.38;100.00;99877.03;4890709;29;20131;-82
2023/12/30 04:31:33;;;;;;;10.63;1.40;;;6.80;99.90;;;5.36;100.00;99905.84;4847943;29;20045;-82
2023/12/30 04:34:23;;;;;;;10.35;1.20;;;6.70;99.90;;;5.17;100.00;99905.69;4870135;28;20066;-83
2023/12/30 04:36:51;;;;;;;2.75;0.38;;;6.60;99.90;;;4.83;100.00;99891.25;4858158;29;20714;-83
2023/12/30 04:39:24;;;;;;;1.45;0.28;;;6.40;99.90;;;4.71;100.00;99887.34;4873381;28;20115;-84
2023/12/30 04:41:53;;;;;;;1.35;0.20;;;6.40;99.90;;;4.54;100.00;99889.69;4883961;29;20516;-84
2023/12/30 04:44:21;;;;;;;2.78;0.35;;;6.20;99.90;;;4.46;100.00;99884.75;4873102;28;20028;-83
2023/12/30 04:46:53;;;;;;;2.10;0.30;;;6.10;99.90;;;4.49;100.00;99876.84;4888291;28;20043;-84
2023/12/30 04:49:38;;;;;;;2.83;0.30;;;6.00;99.90;;;4.56;100.00;99884.41;4855738;28;20558;-83
2023/12/30 04:52:05;;;;;;;3.38;0.40;;;6.00;99.90;;;4.53;100.00;99887.97;4844115;28;20039;-83
2023/12/30 04:54:42;;;;;;;3.55;0.57;;;6.00;99.90;;;4.57;100.00;99889.56;4850077;28;20031;-83
2023/12/30 04:57:47;;;;;;;;;;;;;;;;;;;;;
2023/12/30 05:00:16;;;;;;;1.85;0.50;;;6.10;99.90;;;4.63;100.00;99896.34;4896922;28;20348;-82
2023/12/30 05:02:41;;;;;;;3.90;0.75;;;6.10;99.90;;;4.67;100.00;99887.50;4823433;29;20035;-83
2023/12/30 05:05:18;;;;;;;;;;;;;;;;;;;;;
2023/12/30 05:07:44;;;;;;;6.85;0.77;;;6.20;99.90;;;4.71;100.00;99905.59;4860924;29;20044;-82
2023/12/30 05:10:12;;;;;;;1.70;0.52;;;6.20;99.90;;;4.72;100.00;99917.72;4850993;29;20091;-82
2023/12/30 05:12:38;;;;;;;3.65;0.52;;;6.20;99.90;;;4.66;100.00;99925.75;4857827;29;20088;-83
2023/12/30 05:15:13;;;;;;;3.70;0.80;;;6.20;99.90;;;4.72;100.00;99915.09;4844136;29;20118;-82
2023/12/30 05:17:39;;;;;;;1.42;0.73;;;6.20;99.90;;;4.71;100.00;99928.22;4877276;28;20044;-82
2023/12/30 05:20:30;;;;;;;3.92;0.57;;;6.20;99.90;;;4.61;100.00;99952.91;4884033;28;20051;-80
2023/12/30 05:23:01;;;;;;;5.38;0.40;;;6.10;99.90;;;4.37;100.00;99955.44;4795940;29;20101;-81
2023/12/30 05:25:36;;;;;;;3.05;0.20;;;6.00;99.90;;;4.29;100.00;99941.81;4801792;29;20324;-82
2023/12/30 05:28:02;;;;;;;1.10;0.28;;;5.90;99.90;;;4.10;100.00;99951.97;4814927;29;20065;-81
2023/12/30 05:30:30;;;;;;;2.25;0.50;;;5.80;99.90;;;4.10;100.00;99951.97;4826176;29;20132;-81
2023/12/30 05:33:06;;;;;;;4.05;0.43;;;5.70;99.90;;;4.03;100.00;99958.28;4783691;29;20567;-82
2023/12/30 05:35:31;;;;;;;3.13;0.28;;;5.70;99.90;;;3.95;100.00;99957.69;4800731;29;20064;-82
2023/12/30 05:37:57;;;;;;;4.47;0.55;;;5.60;99.90;;;3.94;100.00;99942.97;4809820;29;20041;-82
2023/12/30 05:40:31;;;;;;;3.78;0.32;;;5.60;99.90;;;3.98;100.00;99945.41;4777157;29;20044;-81
2023/12/30 05:43:00;;;;;;;0.90;0.30;;;5.60;99.90;;;4.00;100.00;99948.00;4799676;29;20059;-82
2023/12/30 05:45:25;;;;;;;1.55;0.30;;;5.60;99.90;;;3.98;100.00;99950.63;4781469;29;20046;-82
2023/12/30 05:48:14;;;;;;;3.13;0.30;;;5.60;99.90;;;4.01;100.00;99957.50;4790948;29;20501;-83
2023/12/30 05:50:43;;;;;;;0.80;0.10;;;5.60;99.90;;;4.03;100.00;99966.09;4776662;29;20081;-81
2023/12/30 05:53:10;;;;;;;2.60;0.38;;;5.60;99.90;;;4.03;100.00;99969.56;4801213;29;20059;-82
2023/12/30 05:55:42;;;;;;;0.88;0.20;;;5.60;99.90;;;4.05;100.00;99975.56;4785128;29;20136;-81
2023/12/30 05:58:11;;;;;;;1.80;0.20;;;5.60;99.90;;;4.05;100.00;99975.56;4784898;29;20049;-81
2023/12/30 06:00:44;;;;;;;2.60;0.30;;;5.70;99.90;;;4.13;100.00;99980.56;4843286;29;20040;-81
2023/12/30 06:03:13;;;;;;;2.45;0.20;;;5.70;99.90;;;4.18;100.00;99988.22;4863924;28;20052;-81
2023/12/30 06:05:56;;;;;;;2.47;0.40;;;5.70;99.90;;;4.22;100.00;99987.22;4853589;28;20179;-81
2023/12/30 06:08:22;;;;;;;1.35;0.22;;;5.70;99.90;;;4.24;100.00;99999.28;4910416;28;20073;-81
2023/12/30 06:11:13;;;;;;;2.90;0.40;;;5.70;99.90;;;4.28;100.00;100007.88;4853162;29;20046;-81
2023/12/30 06:13:41;;;;;;;7.60;0.45;;;5.70;99.90;;;4.29;100.00;100004.34;4866998;29;20050;-81
2023/12/30 06:16:13;;;;;;;0.88;0.20;;;5.70;99.90;;;4.29;100.00;100009.56;4831603;28;20042;-81
2023/12/30 06:18:42;;;;;;;2.17;0.35;;;;;;;4.25;100.00;100015.78;4782945;29;20496;-81
2023/12/30 06:21:23;;;;;;;5.13;0.50;;;5.70;99.90;;;4.23;100.00;100015.84;4845102;29;20044;-80
2023/12/30 06:23:59;;;;;;;;;;;;;;;;;;;;;
2023/12/30 06:26:25;;;;;;;1.95;0.22;;;5.70;99.90;;;4.19;100.00;100014.25;4838647;29;20321;-80
2023/12/30 06:28:51;;;;;;;1.80;0.32;;;5.60;99.90;;;4.19;100.00;100015.97;4837679;29;20046;-81
2023/12/30 06:31:24;;;;;;;3.00;0.40;;;5.60;99.90;;;4.10;100.00;100027.53;4880721;28;20027;-81
2023/12/30 06:33:52;;;;;;;2.63;0.40;;;5.60;99.90;;;4.11;100.00;100035.31;4875222;28;20070;-80
2023/12/30 06:36:23;;;;;;;1.30;0.30;;;5.50;99.90;;;4.08;100.00;100038.03;4896105;28;20040;-81
2023/12/30 06:39:16;;;;;;;2.72;0.63;;;5.50;99.90;;;4.04;100.00;100040.75;4817741;28;20542;-81
2023/12/30 06:41:42;;;;;;;2.92;0.80;;;5.50;99.90;;;4.04;100.00;100053.78;4827755;29;21230;-82
2023/12/30 06:44:26;;;;;;;;;;;;;;;;;;;;;
2023/12/30 06:46:53;;;;;;;4.53;0.60;;;5.50;99.90;;;4.12;100.00;100059.59;4839042;28;20357;-81
2023/12/30 06:49:19;;;;;;;4.50;0.52;;;5.60;99.90;;;4.13;100.00;100061.31;4810825;29;20062;-81
2023/12/30 06:51:45;;;;;;;8.27;0.65;;;5.60;99.90;;;4.16;100.00;100071.66;4853723;29;20044;-80
2023/12/30 06:54:10;;;;;;;4.45;0.57;;;5.60;99.90;;;4.17;100.00;100075.97;4873642;28;20046;-81
2023/12/30 06:56:44;;;;;;;3.08;0.55;;;5.60;99.90;;;4.22;100.00;100070.63;4847922;28;20046;-82
2023/12/30 06:59:12;;;;;;;4.60;0.55;;;5.70;99.90;;;4.20;100.00;100081.06;4857492;28;20039;-83
2023/12/30 07:01:56;;;;;;;8.60;0.98;;;5.70;99.90;;;4.25;100.00;100087.00;4890618;28;20031;-84
2023/12/30 07:04:26;;;;;;;3.15;0.77;;;5.70;99.90;;;4.31;100.00;100101.59;4813359;28;20110;-82
2023/12/30 07:06:54;;;;;;;9.88;1.67;;;5.70;99.90;;;4.28;100.00;100089.53;4824102;28;20585;-83
2023/12/30 07:09:23;;;;;;;5.32;0.90;;;5.70;99.90;;;4.33;100.00;100097.19;4850321;28;21512;-83
2023/12/30 07:11:49;;;;;;;8.93;1.52;;;5.70;99.90;;;4.34;100.00;100103.25;4868795;28;20085;-82
2023/12/30 07:14:22;;;;;;;6.90;1.00;;;5.70;99.90;;;4.34;100.00;100105.84;4838602;28;20490;-82
2023/12/30 07:16:51;;;;;;;7.05;1.10;;;5.70;99.90;;;4.32;100.00;100113.75;4855047;28;20537;-83
2023/12/30 07:19:25;;;;;;;9.07;1.00;;;5.70;99.90;;;4.29;100.00;100109.44;4843624;28;20041;-83
2023/12/30 07:21:50;;;;;;;6.70;0.75;;;5.70;99.90;;;4.27;100.00;100116.47;4879911;28;20043;-83
2023/12/30 07:24:19;;;;;;;4.28;0.50;;;5.70;99.90;;;4.21;100.00;100139.25;4855116;29;20051;-82
2023/12/30 07:26:45;;;;;;;10.60;1.00;;;;;;;4.17;100.00;100128.09;4832289;28;20124;-82
2023/12/30 07:29:23;;;;;;;11.15;1.00;;;5.60;99.90;;;4.15;100.00;100132.50;4892600;28;20502;-83
2023/12/30 07:32:05;;;;;;;4.43;0.82;;;5.60;99.90;;;4.16;100.00;100128.13;4907923;28;20425;-80
2023/12/30 07:34:36;;;;;;;10.10;1.30;;;5.60;99.90;;;4.16;100.00;100131.56;4887556;28;20514;-81
2023/12/30 07:37:04;;;;;;;2.17;0.73;;;5.60;99.90;;;4.13;100.00;100134.28;4854947;28;20139;-81
2023/12/30 07:39:32;;;;;;;10.85;1.85;;;5.60;99.90;;;4.09;100.00;100141.31;4809504;29;20414;-80
2023/12/30 07:42:17;;;;;;;;;;;;;;;;;;;;;
2023/12/30 07:44:46;;;;;;;6.35;1.25;;;5.60;99.90;;;4.12;100.00;100142.97;4827377;29;20784;-81
2023/12/30 07:47:12;;;;;;;6.57;0.95;;;5.60;99.90;;;4.15;100.00;100153.34;4821148;29;20186;-82
2023/12/30 07:49:38;;;;;;;21.55;1.38;;;5.60;99.90;;;4.21;100.00;100163.59;4834937;29;20123;-82
2023/12/30 07:52:04;;;;;;;7.80;1.58;;;5.70;99.90;;;4.24;100.00;100163.47;4859820;28;20039;-81
2023/12/30 07:54:30;;;;;;;10.40;1.25;;;5.70;99.90;;;4.28;100.00;100169.47;4866366;29;20042;-82
2023/12/30 07:57:05;;;;;;;11.48;1.40;;;5.70;99.90;;;4.30;100.00;100171.13;4873826;28;20039;-81
2023/12/30 07:59:31;;;;;;;6.07;1.20;;;5.70;99.90;;;4.36;100.00;100174.44;4888040;28;20508;-81
2023/12/30 08:01:56;;;;;;;14.18;1.92;;;5.80;99.90;;;4.40;100.00;100173.44;4905831;28;20035;-81
2023/12/30 08:04:32;;;;;;;8.82;1.20;;;5.80;99.90;;;4.44;100.00;100180.28;4890597;28;20050;-81
2023/12/30 08:06:58;;;;;;;5.38;1.05;;;5.90;99.90;;;4.49;100.00;100184.47;4879316;28;20041;-82
2023/12/30 08:09:24;;;;;;;12.30;1.38;;;5.90;99.90;;;4.56;100.00;100194.69;4876563;28;20671;-81
2023/12/30 08:11:50;;;;;;;6.10;0.70;;;5.90;99.90;;;4.56;100.00;100200.78;4877860;29;20045;-82
2023/12/30 08:14:24;;;;;;;4.80;0.95;;;6.00;99.90;;;4.59;100.00;100200.66;4869351;28;20028;-81
2023/12/30 08:16:53;;;;;;;8.38;1.30;;;6.00;99.90;;;4.62;100.00;100205.81;4921116;28;20042;-80
2023/12/30 08:19:27;;;;;;;10.48;1.10;;;6.00;99.90;;;4.65;100.00;100203.09;4865618;28;20068;-82
2023/12/30 08:21:53;;;;;;;14.02;1.48;;;6.10;99.90;;;4.69;100.00;100196.88;4920409;28;20062;-81
2023/12/30 08:24:21;;;;;;;12.45;1.05;;;6.10;99.90;;;4.72;100.00;100198.53;4901683;28;20467;-82
2023/12/30 08:26:52;;;;;;;13.27;1.25;;;6.10;99.90;;;4.73;100.00;100206.34;4883078;28;20028;-80
2023/12/30 08:29:18;;;;;;;9.48;1.60;;;6.10;99.90;;;4.75;100.00;100205.41;4901912;28;20181;-82
2023/12/30 08:31:46;;;;;;;18.10;1.63;;;6.10;99.90;;;4.80;100.00;100198.31;4852798;28;20039;-82
2023/12/30 08:34:13;;;;;;;6.40;0.98;;;6.20;99.90;;;4.79;100.00;100209.63;4852733;29;20036;-82
2023/12/30 08:36:44;;;;;;;6.68;1.17;;;6.30;99.90;;;4.86;100.00;100208.53;4881659;29;20043;-81
2023/12/30 08:39:13;;;;;;;8.18;1.48;;;6.30;99.90;;;4.88;100.00;100212.81;4840854;28;20114;-83
2023/12/30 08:41:40;;;;;;;5.10;1.17;;;6.30;99.90;;;4.91;100.00;100222.31;4840449;28;20130;-81
2023/12/30 08:44:15;;;;;;;6.20;1.23;;;6.40;99.90;;;4.96;100.00;100224.78;4859014;28;20034;-82
2023/12/30 08:46:41;;;;;;;7.50;1.05;;;6.40;99.90;;;4.99;100.00;100222.94;4889898;28;20099;-82
2023/12/30 08:49:07;;;;;;;6.75;2.00;;;6.40;99.90;;;5.00;100.00;100229.00;4883666;28;20086;-79
2023/12/30 08:51:34;;;;;;;8.48;1.40;;;6.40;99.90;;;5.05;100.00;100235.75;4874863;28;20049;-81
2023/12/30 08:56:53;;;;;;;8.10;1.42;;;6.50;99.90;;;5.12;100.00;100241.66;4826089;29;20049;-81
2023/12/30 08:59:29;;;;;;;11.07;1.38;;;6.50;99.90;;;5.16;100.00;100243.25;4804315;29;20080;-80
2023/12/30 09:01:55;;;;;;;6.95;1.05;;;6.50;99.90;;;5.15;100.00;100246.78;4808835;29;20063;-81
2023/12/30 09:04:21;;;;;;;7.75;1.10;;;6.50;99.90;;;5.14;100.00;100251.16;4790879;29;20048;-81
2023/12/30 09:07:01;;;;;;;7.70;1.08;;;6.60;99.90;;;5.19;100.00;100265.81;4855305;23;20036;-80
2023/12/30 09:09:34;;;;;;;6.88;0.90;;;6.60;99.90;;;5.23;100.00;100268.28;4817385;29;20167;-80
2023/12/30 09:12:00;;;;;;;11.52;1.20;;;6.60;99.90;;;5.25;100.00;100268.22;4876730;28;20048;-81
2023/12/30 09:14:29;;;;;;;8.30;1.00;;;6.70;99.90;;;5.30;100.00;100268.94;4896014;29;20054;-80
2023/12/30 09:17:04;;;;;;;7.82;1.35;;;6.70;99.90;;;5.26;100.00;100264.69;4893063;28;20138;-81
2023/12/30 09:19:30;;;;;;;11.85;1.30;;;6.60;99.90;;;5.32;100.00;100269.72;4859263;29;20049;-79
2023/12/30 09:21:56;;;;;;;8.82;1.27;;;6.70;99.90;;;5.34;100.00;100278.38;4853675;28;20044;-79
2023/12/30 09:24:22;;;;;;;9.90;1.48;;;6.70;99.90;;;5.40;100.00;100278.19;4881105;29;20105;-79
2023/12/30 09:26:53;;;;;;;9.93;1.25;;;6.80;99.90;;;5.42;100.00;100291.16;4898422;29;20043;-79
2023/12/30 09:29:19;;;;;;;6.88;1.23;;;6.80;99.90;;;5.43;100.00;100298.09;4861445;29;20043;-79
2023/12/30 09:31:45;;;;;;;6.25;1.10;;;6.80;99.90;;;5.43;100.00;100301.56;4866049;29;20061;-79
2023/12/30 09:34:11;;;;;;;7.32;1.15;;;6.80;99.90;;;5.44;100.00;100300.69;4848061;29;20048;-80
2023/12/30 09:36:37;;;;;;;8.57;1.20;;;6.90;99.90;;;5.50;100.00;100297.00;4878885;29;20043;-80
2023/12/30 09:39:12;;;;;;;9.48;1.05;;;6.90;99.90;;;5.55;100.00;100309.00;4876976;28;20035;-79
2023/12/30 09:41:41;;;;;;;10.02;1.45;;;6.90;99.90;;;5.58;100.00;100312.44;4922966;29;20039;-79
2023/12/30 09:44:12;;;;;;;9.32;1.23;;;7.00;99.90;;;5.59;100.00;100320.19;4865986;29;20069;-79
2023/12/30 09:46:42;;;;;;;8.38;1.27;;;7.00;99.90;;;5.63;100.00;100320.94;4899981;28;20036;-79
2023/12/30 09:49:09;;;;;;;6.93;1.50;;;7.00;99.90;;;5.64;100.00;100315.69;4871553;28;20044;-80
2023/12/30 09:51:41;;;;;;;11.18;1.27;;;7.00;99.90;;;5.66;100.00;100329.56;4879779;29;20046;-79
2023/12/30 09:54:10;;;;;;;11.77;1.52;;;7.00;99.90;;;5.65;100.00;100335.66;4885006;29;20115;-80
2023/12/30 09:56:36;;;;;;;7.15;1.30;;;7.00;99.90;;;5.65;100.00;100340.88;4872865;29;20036;-80
2023/12/30 09:59:10;;;;;;;9.45;1.83;;;7.00;99.90;;;5.64;100.00;100341.81;4869321;29;20502;-80
2023/12/30 10:01:40;;;;;;;6.13;1.25;;;7.00;99.90;;;5.67;100.00;100340.84;4879996;29;20094;-79
2023/12/30 10:04:12;;;;;;;9.48;1.55;;;7.10;99.90;;;5.61;100.00;100348.88;4920170;29;20586;-79
2023/12/30 10:06:40;;;;;;;11.98;1.80;;;7.00;99.90;;;5.62;100.00;100341.00;4880229;23;20921;-80
2023/12/30 10:09:09;;;;;;;8.18;1.92;;;7.00;99.90;;;5.62;100.00;100348.00;4894400;28;20074;-81
2023/12/30 10:11:43;;;;;;;18.60;2.42;;;7.00;99.90;;;5.66;100.00;100354.81;4862473;28;20039;-80
2023/12/30 10:14:12;;;;;;;8.70;1.67;;;7.00;99.90;;;5.65;100.00;100350.50;4891377;28;20398;-82
2023/12/30 10:17:19;;;;;;;14.63;2.38;;;7.00;99.90;;;5.62;100.00;100343.63;4920302;28;20121;-82
2023/12/30 10:19:48;;;;;;;8.73;1.70;;;7.00;99.90;;;5.62;100.00;100355.84;4803889;29;20111;-82
2023/12/30 10:22:23;;;;;;;5.07;1.40;;;7.00;99.90;;;5.64;100.00;100354.03;4811297;29;20136;-82
2023/12/30 10:24:52;;;;;;;9.93;1.73;;;7.00;99.90;;;5.71;100.00;100371.19;4807359;29;20571;-83
2023/12/30 10:27:18;;;;;;;10.43;1.33;;;7.10;99.90;;;5.72;100.00;100365.94;4815623;29;20052;-83
2023/12/30 10:29:54;;;;;;;13.57;1.73;;;7.10;99.90;;;5.75;100.00;100371.03;4781958;29;20497;-82
2023/12/30 10:32:21;;;;;;;13.07;2.47;;;7.10;99.90;;;5.80;100.00;100370.91;4813721;29;20444;-82
2023/12/30 10:34:55;;;;;;;11.23;1.55;;;7.10;99.90;;;5.75;100.00;100375.44;4831991;29;20042;-83
2023/12/30 10:37:23;;;;;;;7.47;1.48;;;7.10;99.90;;;5.70;100.00;100377.31;4854903;29;20121;-83
2023/12/30 10:40:03;;;;;;;8.57;1.42;;;;;;;5.67;100.00;100378.28;4829274;29;20071;-83
2023/12/30 10:42:36;;;;;;;11.70;1.75;;;7.00;99.90;;;5.60;100.00;100374.16;4830296;29;20044;-82
2023/12/30 10:45:02;;;;;;;8.05;1.73;;;7.00;99.90;;;5.63;100.00;100387.09;4791533;29;20053;-83
2023/12/30 10:47:30;;;;;;;9.43;2.00;;;7.00;99.90;;;5.59;100.00;100382.88;4816695;29;20437;-82
2023/12/30 10:50:10;;;;;;;7.45;1.55;;;7.00;99.90;;;5.69;100.00;100389.53;4769052;29;20050;-83
2023/12/30 10:53:05;;;;;;;11.57;1.48;;;7.00;99.90;;;5.69;100.00;100397.38;4793259;29;20038;-82